Time;durP1;ratioP1;P1;durP2;ratioP2;P2;SDS_P1;SDS_P2;PMS_P1;PMS_P2;Temp;Humidity;BMP_temperature;BMP_pressure;BME280_temperature;BME280_humidity;BME280_pressure;Samples;Min_cycle;Max_cycle;Signal;HPM_P1;HPM_P2
2023/01/21 00:00:37;;;;;;;;;;;;;;;2.63;73.23;99862.25;5409644;32;33867;-82
2023/01/21 00:03:39;;;;;;;;;;;;;;;2.88;74.11;99850.59;5402950;32;34612;-75
2023/01/21 00:06:41;;;;;;;;;;;;;;;2.21;76.12;99848.16;5400812;32;34027;-80
2023/01/21 00:09:43;;;;;;;;;;;;;;;3.08;73.58;99846.81;5397031;32;33904;-75
2023/01/21 00:12:45;;;;;;;;;;;;;;;2.46;74.75;99849.53;5413745;32;34483;-83
2023/01/21 00:15:47;;;;;;;;;;;;;;;3.52;71.59;99838.22;5382218;32;45072;-74
2023/01/21 00:18:49;;;;;;;;;;;;;;;2.84;74.82;99842.91;5397427;32;34388;-81
2023/01/21 00:21:51;;;;;;;;;;;;;;;3.71;70.67;99834.37;5396954;32;33899;-74
2023/01/21 00:24:53;;;;;;;;;;;;;;;3.83;70.68;99841.06;5413354;32;33983;-80
2023/01/21 00:27:55;;;;;;;;;;;;;;;2.49;73.97;99859.84;5414786;32;34164;-81
2023/01/21 00:30:58;;;;;;;;;;;;;;;3.30;73.02;99847.31;5395442;32;34390;-78
2023/01/21 00:34:00;;;;;;;;;;;;;;;3.82;69.96;99844.56;5411650;32;33740;-75
2023/01/21 00:37:02;;;;;;;;;;;;;;;4.06;68.95;99848.41;5398694;32;34146;-72
2023/01/21 00:40:04;;;;;;;;;;;;;;;3.82;67.94;99852.34;5395647;32;34075;-73
2023/01/21 00:43:06;;;;;;;;;;;;;;;3.45;70.36;99839.22;5389043;32;33864;-80
2023/01/21 00:46:08;;;;;;;;;;;;;;;3.03;71.19;99848.63;5397221;32;34596;-81
2023/01/21 00:49:10;;;;;;;;;;;;;;;3.15;72.13;99844.06;5409903;32;35418;-76
2023/01/21 00:52:12;;;;;;;;;;;;;;;2.46;73.25;99846.09;5378151;32;36069;-74
2023/01/21 00:55:14;;;;;;;;;;;;;;;2.67;73.39;99838.81;5407714;32;33317;-75
2023/01/21 00:58:16;;;;;;;;;;;;;;;3.04;72.71;99848.63;5399668;32;43331;-78
2023/01/21 01:01:19;;;;;;;;;;;;;;;3.19;72.71;99845.75;5410524;32;33799;-80
2023/01/21 01:04:21;;;;;;;;;;;;;;;3.69;70.44;99846.53;5408716;32;34244;-81
2023/01/21 01:07:23;;;;;;;;;;;;;;;3.92;68.79;99847.81;5401459;32;34584;-75
2023/01/21 01:10:25;;;;;;;;;;;;;;;2.83;72.47;99847.22;5407413;32;33397;-83
2023/01/21 01:13:28;;;;;;;;;;;;;;;3.16;71.44;99844.97;5399729;32;33242;-80
2023/01/21 01:16:30;;;;;;;;;;;;;;;3.18;73.11;99849.22;5411592;32;33603;-80
2023/01/21 01:19:32;;;;;;;;;;;;;;;3.64;70.17;99852.72;5395418;32;34378;-81
2023/01/21 01:22:33;;;;;;;;;;;;;;;3.58;70.63;99853.69;5409690;32;34391;-81
2023/01/21 01:25:36;;;;;;;;;;;;;;;3.54;70.15;99867.59;5399483;32;33464;-75
2023/01/21 01:28:38;;;;;;;;;;;;;;;4.59;67.22;99867.19;5375785;32;34035;-74
2023/01/21 01:31:42;;;;;;;;;;;;;;;3.55;70.34;99869.34;5402702;32;34125;-74
2023/01/21 01:34:45;;;;;;;;;;;;;;;3.42;70.50;99867.88;5382172;32;34290;-75
2023/01/21 01:37:47;;;;;;;;;;;;;;;4.11;68.61;99849.13;5400563;32;46328;-75
2023/01/21 01:40:49;;;;;;;;;;;;;;;3.02;72.19;99858.16;5397990;32;33979;-79
2023/01/21 01:43:59;;;;;;;;;;;;;;;4.06;67.87;99849.25;5407378;32;33351;-74
2023/01/21 01:47:01;;;;;;;;;;;;;;;4.15;67.50;99850.81;5403359;32;34704;-74
2023/01/21 01:50:03;;;;;;;;;;;;;;;4.05;69.21;99850.13;5392203;32;34511;-74
2023/01/21 01:53:06;;;;;;;;;;;;;;;4.43;68.00;99844.97;5401057;32;34239;-74
2023/01/21 01:56:08;;;;;;;;;;;;;;;4.93;65.63;99838.56;5409907;32;34088;-75
2023/01/21 01:59:10;;;;;;;;;;;;;;;4.00;68.52;99841.59;5404276;32;33603;-80
2023/01/21 02:02:16;;;;;;;;;;;;;;;4.59;65.95;99846.34;5400544;32;34255;-81
2023/01/21 02:05:18;;;;;;;;;;;;;;;2.97;71.50;99839.22;5402124;32;43107;-80
2023/01/21 02:08:20;;;;;;;;;;;;;;;2.87;72.01;99841.09;5401578;32;33350;-81
2023/01/21 02:11:22;;;;;;;;;;;;;;;3.21;71.89;99830.12;5396092;32;34279;-81
2023/01/21 02:14:25;;;;;;;;;;;;;;;3.46;70.48;99833.97;5419395;32;34431;-81
2023/01/21 02:17:33;;;;;;;;;;;;;;;3.34;71.63;99842.00;5399146;32;34222;-75
2023/01/21 02:20:57;;;;;;;;;;;;;;;3.26;71.61;99836.94;5408626;32;33430;-81
2023/01/21 02:24:08;;;;;;;;;;;;;;;2.69;73.07;99834.47;5391024;32;33978;-80
2023/01/21 02:27:46;;;;;;;;;;;;;;;3.28;72.29;99834.31;5397272;32;35009;-75
2023/01/21 02:30:54;;;;;;;;;;;;;;;3.66;70.80;99837.94;5354390;32;34866;-75
2023/01/21 02:34:16;;;;;;;;;;;;;;;4.32;67.69;99835.69;5406392;32;34502;-74
2023/01/21 02:37:41;;;;;;;;;;;;;;;3.89;68.03;99843.53;5396614;32;44923;-75
2023/01/21 02:40:52;;;;;;;;;;;;;;;3.59;70.09;99845.00;5420786;32;33751;-78
2023/01/21 02:44:06;;;;;;;;;;;;;;;3.74;69.70;99844.72;5405268;32;45899;-81
2023/01/21 02:47:17;;;;;;;;;;;;;;;3.08;71.58;99852.00;5420101;32;33798;-76
2023/01/21 02:50:21;;;;;;;;;;;;;;;4.05;69.13;99850.13;5387851;32;45215;-81
2023/01/21 02:53:23;;;;;;;;;;;;;;;3.51;69.84;99852.94;5392163;32;33942;-75
2023/01/21 02:56:25;;;;;;;;;;;;;;;3.47;71.21;99858.22;5409635;32;33979;-75
2023/01/21 02:59:27;;;;;;;;;;;;;;;3.69;70.28;99845.69;5409964;32;33796;-80
2023/01/21 03:02:48;;;;;;;;;;;;;;;2.85;73.87;99855.84;5419500;32;34372;-74
2023/01/21 03:05:53;;;;;;;;;;;;;;;3.44;71.95;99845.31;5396870;32;44599;-74
2023/01/21 03:08:59;;;;;;;;;;;;;;;2.90;74.04;99840.22;5412792;32;34850;-74
2023/01/21 03:12:07;;;;;;;;;;;;;;;3.08;72.76;99839.00;5386198;32;34561;-81
2023/01/21 03:18:35;;;;;;;;;;;;;;;2.69;73.65;99841.37;5420117;32;34632;-74
2023/01/21 03:21:37;;;;;;;;;;;;;;;3.01;73.52;99846.06;5398673;32;33888;-81
2023/01/21 03:24:39;;;;;;;;;;;;;;;2.81;73.80;99843.78;5420504;32;34947;-74
2023/01/21 03:27:42;;;;;;;;;;;;;;;2.68;73.85;99869.06;5398220;32;34487;-80
2023/01/21 03:30:44;;;;;;;;;;;;;;;3.41;71.99;99863.53;5398934;32;34039;-80
2023/01/21 03:33:47;;;;;;;;;;;;;;;3.12;72.67;99858.88;5407477;32;44558;-75
2023/01/21 03:36:55;;;;;;;;;;;;;;;3.61;71.69;99843.25;5397149;32;34464;-76
2023/01/21 03:40:17;;;;;;;;;;;;;;;2.86;73.44;99861.91;5408266;32;34483;-80
2023/01/21 03:43:19;;;;;;;;;;;;;;;3.06;73.77;99854.63;5408550;32;44673;-75
2023/01/21 03:46:45;;;;;;;;;;;;;;;3.21;73.56;99869.94;5399557;32;33865;-80
2023/01/21 03:49:48;;;;;;;;;;;;;;;3.46;71.53;99874.69;5408886;32;43504;-76
2023/01/21 03:52:50;;;;;;;;;;;;;;;3.32;72.08;99881.88;5374091;32;34041;-81
2023/01/21 03:55:52;;;;;;;;;;;;;;;3.76;71.39;99878.47;5396414;32;33403;-81
2023/01/21 03:58:54;;;;;;;;;;;;;;;3.35;71.38;99884.41;5409574;32;33669;-74
2023/01/21 04:01:56;;;;;;;;;;;;;;;3.94;70.84;99887.66;5417966;32;33229;-75
2023/01/21 04:04:58;;;;;;;;;;;;;;;3.03;72.36;99896.22;5413585;32;34643;-76
2023/01/21 04:08:00;;;;;;;;;;;;;;;2.53;75.54;99889.22;5398537;32;34479;-81
2023/01/21 04:11:02;;;;;;;;;;;;;;;3.53;71.84;99899.69;5405582;32;34011;-81
2023/01/21 04:14:03;;;;;;;;;;;;;;;3.59;70.18;99909.97;5395122;32;33893;-74
2023/01/21 04:17:05;;;;;;;;;;;;;;;3.12;72.55;99926.38;5395904;32;33885;-75
2023/01/21 04:20:08;;;;;;;;;;;;;;;4.39;68.88;99909.25;5395290;32;34440;-74
2023/01/21 04:23:10;;;;;;;;;;;;;;;3.62;71.09;99915.13;5407081;32;34346;-82
2023/01/21 04:26:12;;;;;;;;;;;;;;;3.70;71.86;99914.97;5422623;32;34034;-74
2023/01/21 04:29:14;;;;;;;;;;;;;;;4.85;67.64;99911.69;5396421;32;34072;-76
2023/01/21 04:32:16;;;;;;;;;;;;;;;5.31;65.32;99921.00;5405581;32;34092;-74
2023/01/21 04:35:18;;;;;;;;;;;;;;;3.43;69.40;99931.94;5392942;32;43939;-80
2023/01/21 04:38:20;;;;;;;;;;;;;;;3.96;70.39;99933.53;5412718;32;34586;-75
2023/01/21 04:41:21;;;;;;;;;;;;;;;4.02;70.24;99929.97;5387127;32;34525;-81
2023/01/21 04:44:26;;;;;;;;;;;;;;;4.16;69.17;99930.53;5403420;32;33592;-81
2023/01/21 04:47:28;;;;;;;;;;;;;;;4.63;68.29;99941.69;5408710;32;33693;-81
2023/01/21 04:50:29;;;;;;;;;;;;;;;4.20;68.63;99940.00;5382669;32;33458;-81
2023/01/21 04:53:31;;;;;;;;;;;;;;;4.90;67.37;99950.66;5393798;32;33972;-74
2023/01/21 04:56:33;;;;;;;;;;;;;;;4.66;67.10;99941.63;5396895;32;34567;-75
2023/01/21 04:59:35;;;;;;;;;;;;;;;4.87;66.59;99940.28;5410340;32;34554;-75
2023/01/21 05:02:37;;;;;;;;;;;;;;;4.53;67.45;99954.06;5399192;32;33840;-79
2023/01/21 05:05:39;;;;;;;;;;;;;;;3.70;71.61;99960.00;5407627;32;34626;-75
2023/01/21 05:08:41;;;;;;;;;;;;;;;3.74;72.48;99963.44;5409510;32;34086;-75
2023/01/21 05:11:43;;;;;;;;;;;;;;;4.84;68.65;99959.44;5392847;32;33732;-80
2023/01/21 05:14:45;;;;;;;;;;;;;;;4.96;67.77;99963.53;5405497;32;33880;-75
2023/01/21 05:17:47;;;;;;;;;;;;;;;3.86;71.75;99972.72;5400449;32;44584;-75
2023/01/21 05:20:49;;;;;;;;;;;;;;;3.95;72.09;99977.78;5397743;32;34448;-81
2023/01/21 05:23:50;;;;;;;;;;;;;;;4.86;68.67;99975.88;5395973;32;34463;-75
2023/01/21 05:26:52;;;;;;;;;;;;;;;3.67;73.03;99978.28;5398953;32;34499;-75
2023/01/21 05:29:55;;;;;;;;;;;;;;;3.70;74.16;99988.59;5392601;32;34266;-81
2023/01/21 05:32:57;;;;;;;;;;;;;;;4.20;69.34;99985.97;5406371;32;34425;-75
2023/01/21 05:36:00;;;;;;;;;;;;;;;2.82;76.24;99998.63;5403397;32;34309;-75
2023/01/21 05:39:02;;;;;;;;;;;;;;;3.04;76.43;99995.75;5394998;32;34523;-74
2023/01/21 05:42:04;;;;;;;;;;;;;;;3.26;76.29;99987.59;5409759;32;33918;-81
2023/01/21 05:45:06;;;;;;;;;;;;;;;3.96;73.18;99989.88;5396776;32;33906;-75
2023/01/21 05:48:08;;;;;;;;;;;;;;;3.23;76.48;100008.44;5401701;32;33391;-75
2023/01/21 05:51:09;;;;;;;;;;;;;;;3.61;74.82;100011.31;5389735;32;34059;-81
2023/01/21 05:54:11;;;;;;;;;;;;;;;3.68;74.53;100020.72;5390571;32;34297;-75
2023/01/21 05:57:13;;;;;;;;;;;;;;;4.45;72.28;100017.56;5408026;32;33825;-80
2023/01/21 06:00:16;;;;;;;;;;;;;;;3.80;73.07;100017.91;5393647;32;33798;-74
2023/01/21 06:03:18;;;;;;;;;;;;;;;3.59;74.20;100023.44;5411005;32;44973;-76
2023/01/21 06:06:20;;;;;;;;;;;;;;;4.65;70.64;100018.00;5403968;32;33951;-80
2023/01/21 06:09:22;;;;;;;;;;;;;;;4.89;69.60;100022.72;5404603;32;33703;-80
2023/01/21 06:12:24;;;;;;;;;;;;;;;3.83;72.76;100045.59;5403547;32;34278;-81
2023/01/21 06:15:26;;;;;;;;;;;;;;;3.31;74.73;100041.22;5399950;32;35418;-75
2023/01/21 06:18:28;;;;;;;;;;;;;;;3.47;73.02;100040.09;5401653;32;33222;-81
2023/01/21 06:21:30;;;;;;;;;;;;;;;2.69;76.95;100031.66;5394187;32;34298;-73
2023/01/21 06:24:31;;;;;;;;;;;;;;;2.77;78.21;100033.31;5418500;32;35211;-74
2023/01/21 06:27:36;;;;;;;;;;;;;;;3.43;76.46;100054.03;5383416;32;34031;-80
2023/01/21 06:30:38;;;;;;;;;;;;;;;4.17;73.01;100040.63;5381411;32;34313;-75
2023/01/21 06:33:40;;;;;;;;;;;;;;;4.03;73.01;100048.69;5412981;32;35626;-76
2023/01/21 06:36:42;;;;;;;;;;;;;;;4.11;72.98;100065.00;5393576;32;34087;-79
2023/01/21 06:39:43;;;;;;;;;;;;;;;4.97;69.62;100058.16;5410309;32;33720;-74
2023/01/21 06:42:46;;;;;;;;;;;;;;;3.29;73.92;100067.22;5391669;32;34577;-74
2023/01/21 06:45:48;;;;;;;;;;;;;;;3.82;74.45;100077.66;5404613;32;44610;-80
2023/01/21 06:48:50;;;;;;;;;;;;;;;4.45;71.61;100072.22;5404315;32;34615;-81
2023/01/21 06:51:52;;;;;;;;;;;;;;;3.23;75.57;100075.09;5379525;32;34909;-75
2023/01/21 06:54:54;;;;;;;;;;;;;;;2.77;78.50;100073.12;5398027;32;34138;-80
2023/01/21 06:57:56;;;;;;;;;;;;;;;3.99;74.29;100075.63;5408175;32;34291;-74
2023/01/21 07:00:58;;;;;;;;;;;;;;;2.99;75.68;100084.94;5406544;32;34235;-76
2023/01/21 07:04:00;;;;;;;;;;;;;;;3.72;73.58;100095.13;5405554;32;33970;-74
2023/01/21 07:07:02;;;;;;;;;;;;;;;3.69;74.10;100084.81;5414295;32;34114;-80
2023/01/21 07:10:04;;;;;;;;;;;;;;;3.30;74.26;100083.66;5399131;32;34129;-75
2023/01/21 07:13:06;;;;;;;;;;;;;;;3.20;76.87;100094.16;5398196;32;34778;-74
2023/01/21 07:16:08;;;;;;;;;;;;;;;4.00;74.19;100098.16;5416517;32;34734;-81
2023/01/21 07:19:10;;;;;;;;;;;;;;;3.76;74.40;100108.06;5398231;32;34317;-75
2023/01/21 07:22:12;;;;;;;;;;;;;;;3.98;74.44;100111.16;5408721;32;33442;-81
2023/01/21 07:25:14;;;;;;;;;;;;;;;3.70;74.62;100121.16;5408065;32;34525;-75
2023/01/21 07:28:16;;;;;;;;;;;;;;;3.80;74.21;100120.16;5407872;32;44876;-81
2023/01/21 07:31:18;;;;;;;;;;;;;;;4.71;72.34;100127.22;5395042;32;34499;-81
2023/01/21 07:34:21;;;;;;;;;;;;;;;4.07;73.80;100142.25;5372174;32;34677;-75
2023/01/21 07:37:23;;;;;;;;;;;;;;;4.11;73.68;100145.63;5427241;32;34714;-76
2023/01/21 07:40:25;;;;;;;;;;;;;;;4.20;73.36;100155.91;5394832;32;34805;-80
2023/01/21 07:43:27;;;;;;;;;;;;;;;4.14;72.03;100155.16;5413543;32;36415;-81
2023/01/21 07:46:29;;;;;;;;;;;;;;;4.49;71.77;100159.75;5395804;32;33412;-74
2023/01/21 07:49:31;;;;;;;;;;;;;;;4.02;73.57;100156.22;5397448;32;34182;-80
2023/01/21 07:52:33;;;;;;;;;;;;;;;4.47;73.79;100153.72;5382700;32;34524;-80
2023/01/21 07:55:35;;;;;;;;;;;;;;;4.52;72.65;100163.16;5395888;32;33958;-76
2023/01/21 07:58:37;;;;;;;;;;;;;;;5.18;70.93;100161.88;5415610;32;33724;-75
2023/01/21 08:01:39;;;;;;;;;;;;;;;4.76;71.28;100164.44;5395282;32;34021;-76
2023/01/21 08:04:41;;;;;;;;;;;;;;;4.13;73.91;100179.44;5412891;32;34390;-75
2023/01/21 08:07:42;;;;;;;;;;;;;;;4.96;71.75;100174.50;5401357;32;34520;-81
2023/01/21 08:10:49;;;;;;;;;;;;;;;4.96;71.11;100178.81;5399181;32;34433;-74
2023/01/21 08:13:51;;;;;;;;;;;;;;;4.86;70.41;100178.16;5407785;32;43207;-75
2023/01/21 08:16:53;;;;;;;;;;;;;;;4.82;71.42;100190.34;5400271;32;34571;-75
2023/01/21 08:19:55;;;;;;;;;;;;;;;4.99;68.99;100173.56;5412170;32;34617;-75
2023/01/21 08:22:58;;;;;;;;;;;;;;;5.02;69.30;100174.34;5397625;32;34297;-75
2023/01/21 08:26:00;;;;;;;;;;;;;;;5.00;69.78;100172.66;5417220;32;33840;-81
2023/01/21 08:29:03;;;;;;;;;;;;;;;4.25;71.91;100176.63;5399789;32;33815;-76
2023/01/21 08:32:05;;;;;;;;;;;;;;;4.46;72.72;100178.88;5407995;32;33757;-75
2023/01/21 08:35:07;;;;;;;;;;;;;;;5.42;69.02;100176.16;5401240;32;33677;-75
2023/01/21 08:38:09;;;;;;;;;;;;;;;5.02;69.39;100184.75;5400049;32;34776;-81
2023/01/21 08:41:11;;;;;;;;;;;;;;;4.88;70.36;100187.62;5407149;32;34321;-74
2023/01/21 08:44:13;;;;;;;;;;;;;;;4.46;72.05;100194.50;5401557;32;33965;-83
2023/01/21 08:47:16;;;;;;;;;;;;;;;4.83;70.10;100188.59;5411938;32;33685;-75
2023/01/21 08:50:18;;;;;;;;;;;;;;;5.12;69.58;100186.31;5381898;32;44865;-75
2023/01/21 08:53:21;;;;;;;;;;;;;;;5.24;70.12;100194.78;5396853;32;32847;-74
2023/01/21 08:56:22;;;;;;;;;;;;;;;5.01;71.05;100184.78;5398451;32;34633;-76
2023/01/21 08:59:28;;;;;;;;;;;;;;;4.78;71.87;100200.88;5401163;32;33366;-81
2023/01/21 09:02:30;;;;;;;;;;;;;;;4.80;70.13;100196.50;5396695;32;34399;-80
2023/01/21 09:05:32;;;;;;;;;;;;;;;4.59;72.27;100205.56;5396437;32;33776;-76
2023/01/21 09:08:35;;;;;;;;;;;;;;;4.71;72.56;100220.09;5397121;32;34307;-75
2023/01/21 09:11:37;;;;;;;;;;;;;;;5.28;70.17;100212.03;5394701;32;34235;-81
2023/01/21 09:14:39;;;;;;;;;;;;;;;4.40;72.67;100220.63;5411207;32;34643;-81
2023/01/21 09:17:40;;;;;;;;;;;;;;;4.12;73.56;100216.72;5409904;32;34113;-82
2023/01/21 09:20:42;;;;;;;;;;;;;;;4.64;72.13;100219.34;5397119;32;34535;-75
2023/01/21 09:23:44;;;;;;;;;;;;;;;5.31;69.99;100212.00;5415795;32;34744;-74
2023/01/21 09:26:46;;;;;;;;;;;;;;;5.59;68.11;100217.47;5386608;32;44754;-81
2023/01/21 09:29:48;;;;;;;;;;;;;;;4.76;69.79;100220.84;5397416;32;34311;-75
2023/01/21 09:32:50;;;;;;;;;;;;;;;4.83;71.61;100225.06;5385717;32;33368;-82
2023/01/21 09:35:53;;;;;;;;;;;;;;;4.73;72.27;100221.78;5400441;32;33966;-75
2023/01/21 09:38:55;;;;;;;;;;;;;;;5.33;68.45;100218.88;5409909;32;33985;-75
2023/01/21 09:41:57;;;;;;;;;;;;;;;4.53;71.71;100229.94;5398948;32;31708;-79
2023/01/21 09:44:59;;;;;;;;;;;;;;;4.57;72.04;100223.81;5395585;32;33783;-75
2023/01/21 09:48:01;;;;;;;;;;;;;;;5.10;71.26;100216.75;5397843;32;33627;-81
2023/01/21 09:51:24;;;;;;;;;;;;;;;5.54;69.91;100214.09;5394403;32;35245;-82
2023/01/21 09:54:27;;;;;;;;;;;;;;;5.66;69.22;100206.87;5399772;32;36382;-79
2023/01/21 09:57:49;;;;;;;;;;;;;;;5.08;70.43;100212.44;5411995;32;33629;-76
2023/01/21 10:00:54;;;;;;;;;;;;;;;4.60;72.11;100220.28;5407582;32;44952;-81
2023/01/21 10:04:14;;;;;;;;;;;;;;;5.35;70.28;100214.53;5405627;32;34233;-81
2023/01/21 10:07:17;;;;;;;;;;;;;;;5.81;67.65;100207.47;5402614;32;45102;-75
2023/01/21 10:10:21;;;;;;;;;;;;;;;5.77;66.51;100205.81;5375410;32;33517;-75
2023/01/21 10:13:43;;;;;;;;;;;;;;;5.33;67.79;100208.47;5391508;32;34166;-80
2023/01/21 10:16:54;;;;;;;;;;;;;;;4.63;70.94;100212.41;5411370;32;34296;-74
2023/01/21 10:20:05;;;;;;;;;;;;;;;4.84;71.45;100219.84;5399446;32;35694;-75
2023/01/21 10:23:26;;;;;;;;;;;;;;;5.23;69.92;100217.38;5411430;32;34807;-74
2023/01/21 10:26:28;;;;;;;;;;;;;;;6.42;66.16;100211.25;5393966;32;34153;-76
2023/01/21 10:29:30;;;;;;;;;;;;;;;4.66;69.36;100233.19;5399253;32;35011;-74
2023/01/21 10:32:32;;;;;;;;;;;;;;;5.10;70.14;100229.78;5417976;32;33937;-81
2023/01/21 10:35:45;;;;;;;;;;;;;;;5.26;68.36;100225.09;5409251;32;33985;-80
2023/01/21 10:38:47;;;;;;;;;;;;;;;5.02;70.88;100236.00;5415066;32;44702;-74
2023/01/21 10:41:52;;;;;;;;;;;;;;;5.50;69.12;100230.72;5402097;32;34335;-74
2023/01/21 10:44:59;;;;;;;;;;;;;;;5.39;68.28;100229.19;5391668;32;33853;-75
2023/01/21 10:48:01;;;;;;;;;;;;;;;6.06;65.87;100234.75;5423251;32;34067;-75
2023/01/21 10:51:04;;;;;;;;;;;;;;;5.22;70.33;100244.31;5393247;32;33232;-76
2023/01/21 10:54:45;;;;;;;;;;;;;;;5.32;70.13;100247.59;5407314;32;34735;-81
2023/01/21 10:58:10;;;;;;;;;;;;;;;5.14;69.78;100243.59;5317658;32;33571;-75
2023/01/21 11:01:32;;;;;;;;;;;;;;;5.21;68.17;100233.91;5326741;32;32976;-79
2023/01/21 11:04:34;;;;;;;;;;;;;;;5.41;69.35;100235.25;5420483;32;34570;-75
2023/01/21 11:07:37;;;;;;;;;;;;;;;6.00;66.75;100221.84;5404805;32;34854;-81
2023/01/21 11:10:39;;;;;;;;;;;;;;;5.71;68.57;100238.94;5404192;32;34050;-74
2023/01/21 11:13:41;;;;;;;;;;;;;;;5.60;69.22;100227.00;5404695;32;33246;-75
2023/01/21 11:16:46;;;;;;;;;;;;;;;5.03;70.67;100235.12;5381864;32;33958;-81
2023/01/21 11:19:56;;;;;;;;;;;;;;;4.71;71.75;100231.38;5409352;32;44565;-80
2023/01/21 11:22:58;;;;;;;;;;;;;;;4.39;74.08;100234.53;5399762;32;34821;-75
2023/01/21 11:26:04;;;;;;;;;;;;;;;4.98;72.07;100229.16;5404993;32;33729;-81
2023/01/21 11:29:10;;;;;;;;;;;;;;;4.39;72.54;100242.31;5402627;32;34372;-82
2023/01/21 11:32:22;;;;;;;;;;;;;;;4.72;72.83;100225.28;5406857;32;35466;-74
2023/01/21 11:35:24;;;;;;;;;;;;;;;5.04;72.15;100218.62;5388044;32;46365;-75
2023/01/21 11:38:33;;;;;;;;;;;;;;;4.30;74.73;100224.25;5393650;32;33189;-80
2023/01/21 11:41:35;;;;;;;;;;;;;;;4.48;74.60;100223.94;5414535;32;34004;-82
2023/01/21 11:44:48;;;;;;;;;;;;;;;4.27;74.26;100217.34;5384562;32;34295;-74
2023/01/21 11:47:50;;;;;;;;;;;;;;;4.82;73.66;100216.41;5413488;32;46130;-82
2023/01/21 11:51:05;;;;;;;;;;;;;;;4.32;74.09;100220.75;5382690;32;33855;-75
2023/01/21 11:54:12;;;;;;;;;;;;;;;4.60;74.15;100212.47;5382719;32;34067;-75
2023/01/21 11:57:24;;;;;;;;;;;;;;;5.15;72.02;100209.72;5409302;32;33728;-75
2023/01/21 12:00:26;;;;;;;;;;;;;;;5.50;70.75;100212.47;5400699;32;35889;-75
2023/01/21 12:03:33;;;;;;;;;;;;;;;4.56;74.13;100216.84;5414080;32;34643;-74
2023/01/21 12:06:36;;;;;;;;;;;;;;;5.16;71.84;100211.41;5402469;32;33632;-80
2023/01/21 12:09:38;;;;;;;;;;;;;;;5.69;70.34;100224.22;5391585;32;34283;-80
2023/01/21 12:12:46;;;;;;;;;;;;;;;5.39;69.98;100210.94;5394183;32;34531;-82
2023/01/21 12:16:02;;;;;;;;;;;;;;;5.72;68.61;100217.19;5388607;32;44639;-75
2023/01/21 12:19:07;;;;;;;;;;;;;;;5.79;68.66;100219.66;5403529;32;34288;-81
2023/01/21 12:22:21;;;;;;;;;;;;;;;6.12;66.65;100216.34;5399430;32;34431;-74
2023/01/21 12:25:30;;;;;;;;;;;;;;;5.95;66.29;100213.25;5405288;32;44827;-82
2023/01/21 12:28:51;;;;;;;;;;;;;;;5.77;67.54;100224.91;5411855;32;35038;-75
2023/01/21 12:32:01;;;;;;;;;;;;;;;6.21;65.52;100231.75;5403239;32;44745;-76
2023/01/21 12:35:09;;;;;;;;;;;;;;;5.77;68.16;100235.34;5397407;32;34537;-82
2023/01/21 12:38:14;;;;;;;;;;;;;;;4.62;71.71;100245.38;5405368;32;33822;-80
2023/01/21 12:41:17;;;;;;;;;;;;;;;4.45;73.77;100249.19;5409541;32;44643;-80
2023/01/21 12:44:27;;;;;;;;;;;;;;;5.04;72.40;100245.53;5407538;32;45507;-81
2023/01/21 12:47:32;;;;;;;;;;;;;;;4.53;72.36;100248.16;5406706;32;34684;-80
2023/01/21 12:50:38;;;;;;;;;;;;;;;4.63;72.31;100243.63;5402171;32;34526;-80
2023/01/21 12:53:45;;;;;;;;;;;;;;;4.68;71.20;100254.84;5367181;32;33517;-75
2023/01/21 12:56:49;;;;;;;;;;;;;;;5.23;69.96;100255.59;5395488;32;45496;-76
2023/01/21 12:59:52;;;;;;;;;;;;;;;5.64;67.43;100250.41;5407033;32;33934;-81
2023/01/21 13:02:55;;;;;;;;;;;;;;;6.06;66.29;100247.78;5391019;32;34312;-81
2023/01/21 13:05:59;;;;;;;;;;;;;;;5.55;67.71;100261.03;5418472;32;35520;-74
2023/01/21 13:09:22;;;;;;;;;;;;;;;4.63;72.41;100269.66;5386908;32;35016;-82
2023/01/21 13:12:24;;;;;;;;;;;;;;;4.75;72.28;100274.66;5401907;32;44749;-81
2023/01/21 13:15:27;;;;;;;;;;;;;;;3.95;74.02;100272.47;5390104;32;33153;-75
2023/01/21 13:18:33;;;;;;;;;;;;;;;4.33;73.83;100281.44;5407009;32;34950;-76
2023/01/21 13:21:44;;;;;;;;;;;;;;;4.72;70.67;100268.69;5394845;32;34216;-74
2023/01/21 13:25:03;;;;;;;;;;;;;;;4.89;72.56;100271.81;5384483;32;34430;-79
2023/01/21 13:28:24;;;;;;;;;;;;;;;4.91;72.70;100280.50;5414564;32;34412;-80
2023/01/21 13:31:31;;;;;;;;;;;;;;;4.71;70.33;100293.84;5396854;32;44577;-75
2023/01/21 13:34:38;;;;;;;;;;;;;;;4.56;73.41;100296.69;5411675;32;33713;-76
2023/01/21 13:37:52;;;;;;;;;;;;;;;5.02;70.80;100295.91;5419872;32;34429;-83
2023/01/21 13:41:14;;;;;;;;;;;;;;;4.80;70.65;100290.22;5398680;32;46178;-76
2023/01/21 13:44:18;;;;;;;;;;;;;;;5.54;69.00;100287.09;5419283;32;33276;-80
2023/01/21 13:47:34;;;;;;;;;;;;;;;5.01;71.19;100294.19;5406675;32;48167;-81
2023/01/21 13:50:36;;;;;;;;;;;;;;;4.43;72.98;100296.03;5389734;32;34505;-76
2023/01/21 13:53:57;;;;;;;;;;;;;;;5.32;72.36;100292.75;5404255;32;33857;-74
2023/01/21 13:57:01;;;;;;;;;;;;;;;5.57;70.45;100298.34;5402151;32;33413;-82
2023/01/21 14:00:03;;;;;;;;;;;;;;;5.37;71.33;100300.50;5411328;32;33026;-75
2023/01/21 14:03:24;;;;;;;;;;;;;;;5.11;70.52;100311.41;5402886;32;34493;-75
2023/01/21 14:06:26;;;;;;;;;;;;;;;5.39;71.39;100309.13;5401427;32;44933;-81
2023/01/21 14:09:27;;;;;;;;;;;;;;;4.78;71.67;100321.50;5411909;32;34054;-75
2023/01/21 14:12:33;;;;;;;;;;;;;;;5.12;70.64;100318.31;5397676;32;33322;-80
2023/01/21 14:16:13;;;;;;;;;;;;;;;5.68;69.73;100324.22;5416810;32;37901;-74
2023/01/21 14:19:29;;;;;;;;;;;;;;;4.82;73.34;100332.72;5322237;32;33809;-76
2023/01/21 14:22:40;;;;;;;;;;;;;;;5.78;69.92;100320.50;5322036;32;33240;-74
2023/01/21 14:25:42;;;;;;;;;;;;;;;5.07;73.99;100333.16;5408401;32;33715;-80
2023/01/21 14:29:00;;;;;;;;;;;;;;;5.07;72.46;100335.78;5385887;32;34564;-74
2023/01/21 14:32:03;;;;;;;;;;;;;;;5.26;71.66;100333.69;5412435;32;33418;-74
2023/01/21 14:35:05;;;;;;;;;;;;;;;5.24;70.03;100340.69;5408225;32;33824;-75
2023/01/21 14:38:22;;;;;;;;;;;;;;;5.16;70.74;100338.22;5405778;32;33787;-75
2023/01/21 14:41:24;;;;;;;;;;;;;;;4.83;71.66;100344.84;5408887;32;45607;-75
2023/01/21 14:44:37;;;;;;;;;;;;;;;5.45;68.60;100358.53;5392391;32;34364;-74
2023/01/21 14:47:41;;;;;;;;;;;;;;;5.25;71.72;100352.84;5400443;32;34177;-74
2023/01/21 14:50:50;;;;;;;;;;;;;;;4.31;72.62;100361.25;5380239;32;33645;-74
2023/01/21 14:54:22;;;;;;;;;;;;;;;4.31;72.36;100361.25;5404941;32;44971;-80
2023/01/21 14:57:25;;;;;;;;;;;;;;;4.31;73.26;100362.09;5403810;32;45443;-81
2023/01/21 15:00:34;;;;;;;;;;;;;;;4.70;72.58;100353.75;5381954;32;33472;-75
2023/01/21 15:03:43;;;;;;;;;;;;;;;4.32;73.61;100356.06;5414417;32;33888;-75
2023/01/21 15:06:45;;;;;;;;;;;;;;;4.48;71.86;100363.63;5391564;32;34075;-81
2023/01/21 15:09:49;;;;;;;;;;;;;;;4.45;73.07;100363.69;5402360;32;44932;-74
2023/01/21 15:12:52;;;;;;;;;;;;;;;3.60;75.02;100371.66;5408096;32;34622;-76
2023/01/21 15:16:03;;;;;;;;;;;;;;;4.12;75.22;100373.66;5406588;32;33976;-80
2023/01/21 15:19:08;;;;;;;;;;;;;;;4.55;74.56;100371.31;5418392;32;34475;-74
2023/01/21 15:22:28;;;;;;;;;;;;;;;4.49;73.73;100376.59;5403247;32;33432;-73
2023/01/21 15:25:32;;;;;;;;;;;;;;;4.85;72.53;100384.75;5412864;32;34620;-74
2023/01/21 15:28:43;;;;;;;;;;;;;;;5.26;71.47;100385.81;5405314;32;34444;-81
2023/01/21 15:31:45;;;;;;;;;;;;;;;4.53;72.08;100382.66;5388272;32;34687;-75
2023/01/21 15:34:47;;;;;;;;;;;;;;;3.94;75.95;100381.72;5396396;32;44790;-80
2023/01/21 15:37:50;;;;;;;;;;;;;;;4.27;74.74;100383.00;5405225;32;34538;-75
2023/01/21 15:40:53;;;;;;;;;;;;;;;4.83;72.96;100383.91;5409231;32;34471;-74
2023/01/21 15:44:14;;;;;;;;;;;;;;;4.98;71.98;100390.63;5389349;32;33599;-82
2023/01/21 15:47:19;;;;;;;;;;;;;;;5.15;71.11;100394.69;5406314;32;44759;-76
2023/01/21 15:50:23;;;;;;;;;;;;;;;4.78;72.30;100377.94;5392423;32;36105;-74
2023/01/21 15:53:35;;;;;;;;;;;;;;;4.80;71.76;100387.44;5385685;32;36019;-80
2023/01/21 15:56:43;;;;;;;;;;;;;;;4.03;75.67;100395.44;5410647;32;33543;-75
2023/01/21 16:00:04;;;;;;;;;;;;;;;4.48;74.93;100397.47;5407137;32;33315;-80
2023/01/21 16:03:25;;;;;;;;;;;;;;;5.38;71.42;100406.47;5402449;32;34618;-74
2023/01/21 16:06:33;;;;;;;;;;;;;;;4.03;75.46;100418.00;5416281;32;33886;-75
2023/01/21 16:09:54;;;;;;;;;;;;;;;4.41;74.66;100414.03;5384893;32;34534;-75
2023/01/21 16:12:56;;;;;;;;;;;;;;;4.46;75.87;100414.84;5409953;32;33786;-82